sensor_id;sensor_type;location;lat;lon;timestamp;P1;durP1;ratioP1;P2;durP2;ratioP2
45316;SDS011;31053;55.870;37.592;2023-04-28T00:02:02;14.55;;;7.25;;
45316;SDS011;31053;55.870;37.592;2023-04-28T00:05:07;8.73;;;6.25;;
45316;SDS011;31053;55.870;37.592;2023-04-28T00:08:12;16.75;;;7.68;;
45316;SDS011;31053;55.870;37.592;2023-04-28T00:11:17;12.88;;;6.00;;
45316;SDS011;31053;55.870;37.592;2023-04-28T00:14:21;14.05;;;7.05;;
45316;SDS011;31053;55.870;37.592;2023-04-28T00:17:26;15.80;;;8.68;;
45316;SDS011;31053;55.870;37.592;2023-04-28T00:20:31;21.52;;;9.13;;
45316;SDS011;31053;55.870;37.592;2023-04-28T00:23:36;10.50;;;6.35;;
45316;SDS011;31053;55.870;37.592;2023-04-28T00:26:40;12.80;;;7.13;;
45316;SDS011;31053;55.870;37.592;2023-04-28T00:29:45;13.57;;;7.13;;
45316;SDS011;31053;55.870;37.592;2023-04-28T00:32:49;11.23;;;6.60;;
45316;SDS011;31053;55.870;37.592;2023-04-28T00:35:58;15.27;;;6.70;;
45316;SDS011;31053;55.870;37.592;2023-04-28T00:39:03;8.77;;;5.50;;
45316;SDS011;31053;55.870;37.592;2023-04-28T00:42:08;16.10;;;7.65;;
45316;SDS011;31053;55.870;37.592;2023-04-28T00:45:13;10.70;;;7.05;;
45316;SDS011;31053;55.870;37.592;2023-04-28T00:48:17;15.85;;;7.43;;
45316;SDS011;31053;55.870;37.592;2023-04-28T00:51:22;15.52;;;7.15;;
45316;SDS011;31053;55.870;37.592;2023-04-28T00:54:27;9.80;;;6.88;;
45316;SDS011;31053;55.870;37.592;2023-04-28T00:57:32;16.92;;;7.00;;
45316;SDS011;31053;55.870;37.592;2023-04-28T01:00:38;14.82;;;7.30;;
45316;SDS011;31053;55.870;37.592;2023-04-28T01:03:42;12.38;;;6.78;;
45316;SDS011;31053;55.870;37.592;2023-04-28T01:06:51;12.95;;;7.70;;
45316;SDS011;31053;55.870;37.592;2023-04-28T01:09:56;17.08;;;6.95;;
45316;SDS011;31053;55.870;37.592;2023-04-28T01:13:07;12.50;;;7.22;;
45316;SDS011;31053;55.870;37.592;2023-04-28T01:16:12;13.85;;;7.32;;
45316;SDS011;31053;55.870;37.592;2023-04-28T01:19:19;13.40;;;7.00;;
45316;SDS011;31053;55.870;37.592;2023-04-28T01:22:29;13.25;;;7.03;;
45316;SDS011;31053;55.870;37.592;2023-04-28T01:25:33;15.45;;;6.70;;
45316;SDS011;31053;55.870;37.592;2023-04-28T01:28:38;12.13;;;6.95;;
45316;SDS011;31053;55.870;37.592;2023-04-28T01:31:42;18.92;;;7.03;;
45316;SDS011;31053;55.870;37.592;2023-04-28T01:34:47;12.68;;;7.25;;
45316;SDS011;31053;55.870;37.592;2023-04-28T01:37:52;17.27;;;7.43;;
45316;SDS011;31053;55.870;37.592;2023-04-28T01:40:56;18.02;;;7.82;;
45316;SDS011;31053;55.870;37.592;2023-04-28T01:44:02;13.00;;;6.65;;
45316;SDS011;31053;55.870;37.592;2023-04-28T01:47:07;15.40;;;7.22;;
45316;SDS011;31053;55.870;37.592;2023-04-28T01:50:12;14.00;;;6.78;;
45316;SDS011;31053;55.870;37.592;2023-04-28T01:53:17;12.95;;;7.97;;
45316;SDS011;31053;55.870;37.592;2023-04-28T01:56:25;12.18;;;7.32;;
45316;SDS011;31053;55.870;37.592;2023-04-28T01:59:32;20.88;;;9.25;;
45316;SDS011;31053;55.870;37.592;2023-04-28T02:02:37;13.13;;;7.47;;
45316;SDS011;31053;55.870;37.592;2023-04-28T02:05:42;17.55;;;8.50;;
45316;SDS011;31053;55.870;37.592;2023-04-28T02:08:47;12.18;;;7.10;;
45316;SDS011;31053;55.870;37.592;2023-04-28T02:11:52;17.55;;;8.95;;
45316;SDS011;31053;55.870;37.592;2023-04-28T02:14:58;14.98;;;8.02;;
45316;SDS011;31053;55.870;37.592;2023-04-28T02:18:04;16.65;;;7.82;;
45316;SDS011;31053;55.870;37.592;2023-04-28T02:21:09;19.02;;;9.70;;
45316;SDS011;31053;55.870;37.592;2023-04-28T02:24:15;11.98;;;8.82;;
45316;SDS011;31053;55.870;37.592;2023-04-28T02:27:20;19.02;;;8.77;;
45316;SDS011;31053;55.870;37.592;2023-04-28T02:30:26;13.95;;;7.65;;
45316;SDS011;31053;55.870;37.592;2023-04-28T02:33:32;15.35;;;7.85;;
45316;SDS011;31053;55.870;37.592;2023-04-28T02:36:37;20.25;;;8.95;;
45316;SDS011;31053;55.870;37.592;2023-04-28T02:39:44;16.70;;;8.50;;
45316;SDS011;31053;55.870;37.592;2023-04-28T02:42:53;13.35;;;7.93;;
45316;SDS011;31053;55.870;37.592;2023-04-28T02:45:59;18.63;;;9.93;;
45316;SDS011;31053;55.870;37.592;2023-04-28T02:49:04;16.13;;;8.60;;
45316;SDS011;31053;55.870;37.592;2023-04-28T02:52:08;17.45;;;7.90;;
45316;SDS011;31053;55.870;37.592;2023-04-28T02:55:14;18.73;;;9.57;;
45316;SDS011;31053;55.870;37.592;2023-04-28T02:58:27;19.73;;;11.15;;
45316;SDS011;31053;55.870;37.592;2023-04-28T03:01:31;21.67;;;12.32;;
45316;SDS011;31053;55.870;37.592;2023-04-28T03:04:36;21.95;;;10.35;;
45316;SDS011;31053;55.870;37.592;2023-04-28T03:07:41;15.43;;;8.77;;
45316;SDS011;31053;55.870;37.592;2023-04-28T03:10:47;17.98;;;8.88;;
45316;SDS011;31053;55.870;37.592;2023-04-28T03:13:52;16.52;;;9.68;;
45316;SDS011;31053;55.870;37.592;2023-04-28T03:16:56;16.17;;;9.02;;
45316;SDS011;31053;55.870;37.592;2023-04-28T03:20:04;13.07;;;8.20;;
45316;SDS011;31053;55.870;37.592;2023-04-28T03:23:09;17.15;;;7.63;;
45316;SDS011;31053;55.870;37.592;2023-04-28T03:26:14;14.20;;;6.28;;
45316;SDS011;31053;55.870;37.592;2023-04-28T03:29:19;15.77;;;6.38;;
45316;SDS011;31053;55.870;37.592;2023-04-28T03:32:24;20.70;;;9.77;;
45316;SDS011;31053;55.870;37.592;2023-04-28T03:35:29;16.00;;;7.20;;
45316;SDS011;31053;55.870;37.592;2023-04-28T03:38:33;17.08;;;9.13;;
45316;SDS011;31053;55.870;37.592;2023-04-28T03:41:38;21.33;;;8.95;;
45316;SDS011;31053;55.870;37.592;2023-04-28T03:45:03;33.28;;;18.88;;
45316;SDS011;31053;55.870;37.592;2023-04-28T03:48:10;17.55;;;11.13;;
45316;SDS011;31053;55.870;37.592;2023-04-28T03:51:15;32.65;;;16.05;;
45316;SDS011;31053;55.870;37.592;2023-04-28T03:54:20;16.92;;;10.50;;
45316;SDS011;31053;55.870;37.592;2023-04-28T03:57:25;18.40;;;8.88;;
45316;SDS011;31053;55.870;37.592;2023-04-28T04:00:36;24.25;;;10.43;;
45316;SDS011;31053;55.870;37.592;2023-04-28T04:03:47;17.48;;;8.90;;
45316;SDS011;31053;55.870;37.592;2023-04-28T04:06:52;20.02;;;10.43;;
45316;SDS011;31053;55.870;37.592;2023-04-28T04:09:57;24.90;;;11.25;;
45316;SDS011;31053;55.870;37.592;2023-04-28T04:13:02;17.58;;;9.82;;
45316;SDS011;31053;55.870;37.592;2023-04-28T04:16:06;29.77;;;15.07;;
45316;SDS011;31053;55.870;37.592;2023-04-28T04:19:11;26.50;;;13.77;;
45316;SDS011;31053;55.870;37.592;2023-04-28T04:22:19;20.77;;;8.13;;
45316;SDS011;31053;55.870;37.592;2023-04-28T04:25:25;22.85;;;11.15;;
45316;SDS011;31053;55.870;37.592;2023-04-28T04:29:44;19.60;;;11.27;;
45316;SDS011;31053;55.870;37.592;2023-04-28T04:34:10;15.93;;;8.50;;
45316;SDS011;31053;55.870;37.592;2023-04-28T04:37:35;22.17;;;10.65;;
45316;SDS011;31053;55.870;37.592;2023-04-28T04:40:45;22.95;;;12.30;;
45316;SDS011;31053;55.870;37.592;2023-04-28T04:43:53;13.73;;;8.05;;
45316;SDS011;31053;55.870;37.592;2023-04-28T04:47:13;21.67;;;9.52;;
45316;SDS011;31053;55.870;37.592;2023-04-28T04:50:49;12.30;;;7.43;;
45316;SDS011;31053;55.870;37.592;2023-04-28T04:53:56;7.38;;;5.30;;
45316;SDS011;31053;55.870;37.592;2023-04-28T04:58:35;15.15;;;7.32;;
45316;SDS011;31053;55.870;37.592;2023-04-28T05:02:25;17.73;;;6.63;;
45316;SDS011;31053;55.870;37.592;2023-04-28T05:06:51;21.33;;;8.98;;
45316;SDS011;31053;55.870;37.592;2023-04-28T05:13:14;15.35;;;8.63;;
45316;SDS011;31053;55.870;37.592;2023-04-28T05:16:24;7.57;;;5.82;;
45316;SDS011;31053;55.870;37.592;2023-04-28T05:21:01;11.02;;;6.07;;
45316;SDS011;31053;55.870;37.592;2023-04-28T05:29:11;12.57;;;7.53;;
45316;SDS011;31053;55.870;37.592;2023-04-28T05:53:16;21.13;;;8.98;;
45316;SDS011;31053;55.870;37.592;2023-04-28T05:56:55;16.52;;;8.57;;
45316;SDS011;31053;55.870;37.592;2023-04-28T06:05:46;7.70;;;4.97;;
45316;SDS011;31053;55.870;37.592;2023-04-28T06:09:26;24.08;;;12.80;;
45316;SDS011;31053;55.870;37.592;2023-04-28T06:12:37;17.80;;;10.35;;
45316;SDS011;31053;55.870;37.592;2023-04-28T06:17:03;13.23;;;6.82;;
45316;SDS011;31053;55.870;37.592;2023-04-28T06:21:11;14.88;;;5.60;;
45316;SDS011;31053;55.870;37.592;2023-04-28T06:33:39;9.00;;;5.32;;
45316;SDS011;31053;55.870;37.592;2023-04-28T06:41:43;9.18;;;5.72;;
45316;SDS011;31053;55.870;37.592;2023-04-28T06:45:02;6.65;;;5.20;;
45316;SDS011;31053;55.870;37.592;2023-04-28T06:54:09;7.38;;;4.07;;
45316;SDS011;31053;55.870;37.592;2023-04-28T06:58:10;7.82;;;3.55;;
45316;SDS011;31053;55.870;37.592;2023-04-28T07:06:57;5.07;;;2.78;;
45316;SDS011;31053;55.870;37.592;2023-04-28T07:11:28;7.00;;;3.55;;
45316;SDS011;31053;55.870;37.592;2023-04-28T07:16:09;11.57;;;4.07;;
45316;SDS011;31053;55.870;37.592;2023-04-28T07:20:17;8.75;;;4.43;;
45316;SDS011;31053;55.870;37.592;2023-04-28T07:32:07;12.02;;;5.53;;
45316;SDS011;31053;55.870;37.592;2023-04-28T07:36:09;16.77;;;4.63;;
45316;SDS011;31053;55.870;37.592;2023-04-28T07:39:58;14.65;;;3.85;;
45316;SDS011;31053;55.870;37.592;2023-04-28T07:43:58;11.38;;;4.43;;
45316;SDS011;31053;55.870;37.592;2023-04-28T07:47:47;5.07;;;3.55;;
45316;SDS011;31053;55.870;37.592;2023-04-28T07:51:25;10.55;;;3.35;;
45316;SDS011;31053;55.870;37.592;2023-04-28T07:55:27;10.50;;;4.00;;
45316;SDS011;31053;55.870;37.592;2023-04-28T08:07:35;11.77;;;4.22;;
45316;SDS011;31053;55.870;37.592;2023-04-28T08:11:18;6.65;;;4.20;;
45316;SDS011;31053;55.870;37.592;2023-04-28T08:18:36;13.82;;;5.28;;
45316;SDS011;31053;55.870;37.592;2023-04-28T08:22:28;16.10;;;5.88;;
45316;SDS011;31053;55.870;37.592;2023-04-28T08:26:21;8.77;;;4.60;;
45316;SDS011;31053;55.870;37.592;2023-04-28T08:30:09;15.95;;;6.07;;
45316;SDS011;31053;55.870;37.592;2023-04-28T08:39:07;10.57;;;5.90;;
45316;SDS011;31053;55.870;37.592;2023-04-28T08:42:15;13.75;;;6.88;;
45316;SDS011;31053;55.870;37.592;2023-04-28T08:45:22;12.70;;;7.05;;
45316;SDS011;31053;55.870;37.592;2023-04-28T08:48:28;16.50;;;7.65;;
45316;SDS011;31053;55.870;37.592;2023-04-28T08:51:34;12.63;;;7.13;;
45316;SDS011;31053;55.870;37.592;2023-04-28T08:54:40;13.50;;;7.90;;
45316;SDS011;31053;55.870;37.592;2023-04-28T08:57:49;10.48;;;5.93;;
45316;SDS011;31053;55.870;37.592;2023-04-28T09:00:57;8.98;;;6.93;;
45316;SDS011;31053;55.870;37.592;2023-04-28T09:04:02;8.88;;;6.47;;
45316;SDS011;31053;55.870;37.592;2023-04-28T09:07:10;9.75;;;7.22;;
45316;SDS011;31053;55.870;37.592;2023-04-28T09:10:21;11.93;;;7.15;;
45316;SDS011;31053;55.870;37.592;2023-04-28T09:13:26;16.92;;;7.78;;
45316;SDS011;31053;55.870;37.592;2023-04-28T09:16:38;16.83;;;9.25;;
45316;SDS011;31053;55.870;37.592;2023-04-28T09:19:44;12.90;;;8.73;;
45316;SDS011;31053;55.870;37.592;2023-04-28T09:22:49;14.52;;;8.98;;
45316;SDS011;31053;55.870;37.592;2023-04-28T09:29:10;14.98;;;8.30;;
45316;SDS011;31053;55.870;37.592;2023-04-28T09:32:20;7.65;;;6.30;;
45316;SDS011;31053;55.870;37.592;2023-04-28T09:35:38;11.80;;;7.40;;
45316;SDS011;31053;55.870;37.592;2023-04-28T09:38:43;18.25;;;8.65;;
45316;SDS011;31053;55.870;37.592;2023-04-28T09:41:48;11.43;;;8.70;;
45316;SDS011;31053;55.870;37.592;2023-04-28T09:44:52;9.73;;;6.10;;
45316;SDS011;31053;55.870;37.592;2023-04-28T09:48:07;14.82;;;7.70;;
45316;SDS011;31053;55.870;37.592;2023-04-28T09:51:19;15.50;;;7.75;;
45316;SDS011;31053;55.870;37.592;2023-04-28T09:54:24;12.57;;;7.38;;
45316;SDS011;31053;55.870;37.592;2023-04-28T09:57:31;13.65;;;8.57;;
45316;SDS011;31053;55.870;37.592;2023-04-28T10:00:37;18.27;;;11.00;;
45316;SDS011;31053;55.870;37.592;2023-04-28T10:03:43;12.20;;;6.47;;
45316;SDS011;31053;55.870;37.592;2023-04-28T10:06:49;13.43;;;8.38;;
45316;SDS011;31053;55.870;37.592;2023-04-28T10:09:54;20.77;;;8.30;;
45316;SDS011;31053;55.870;37.592;2023-04-28T10:12:59;11.63;;;7.20;;
45316;SDS011;31053;55.870;37.592;2023-04-28T10:16:06;12.70;;;8.02;;
45316;SDS011;31053;55.870;37.592;2023-04-28T10:19:11;8.80;;;7.25;;
45316;SDS011;31053;55.870;37.592;2023-04-28T10:25:36;14.95;;;7.78;;
45316;SDS011;31053;55.870;37.592;2023-04-28T10:28:47;10.80;;;8.48;;
45316;SDS011;31053;55.870;37.592;2023-04-28T10:38:29;10.38;;;6.47;;
45316;SDS011;31053;55.870;37.592;2023-04-28T10:41:35;11.37;;;7.43;;
45316;SDS011;31053;55.870;37.592;2023-04-28T10:44:41;12.73;;;6.32;;
45316;SDS011;31053;55.870;37.592;2023-04-28T10:47:59;12.60;;;8.05;;
45316;SDS011;31053;55.870;37.592;2023-04-28T10:54:16;17.45;;;6.80;;
45316;SDS011;31053;55.870;37.592;2023-04-28T11:00:33;8.98;;;5.88;;
45316;SDS011;31053;55.870;37.592;2023-04-28T11:07:28;19.00;;;6.70;;
45316;SDS011;31053;55.870;37.592;2023-04-28T11:10:25;10.75;;;7.82;;
45316;SDS011;31053;55.870;37.592;2023-04-28T11:15:22;9.82;;;7.50;;
45316;SDS011;31053;55.870;37.592;2023-04-28T11:19:54;13.35;;;8.23;;
45316;SDS011;31053;55.870;37.592;2023-04-28T11:24:34;14.07;;;9.20;;
45316;SDS011;31053;55.870;37.592;2023-04-28T11:27:48;17.63;;;10.60;;
45316;SDS011;31053;55.870;37.592;2023-04-28T11:31:14;12.85;;;10.70;;
45316;SDS011;31053;55.870;37.592;2023-04-28T11:35:05;15.88;;;9.20;;
45316;SDS011;31053;55.870;37.592;2023-04-28T11:54:04;12.57;;;8.90;;
45316;SDS011;31053;55.870;37.592;2023-04-28T11:58:30;15.07;;;10.43;;
45316;SDS011;31053;55.870;37.592;2023-04-28T12:17:43;11.48;;;8.20;;
45316;SDS011;31053;55.870;37.592;2023-04-28T12:49:44;14.25;;;7.30;;
45316;SDS011;31053;55.870;37.592;2023-04-28T12:57:41;9.45;;;7.20;;
45316;SDS011;31053;55.870;37.592;2023-04-28T13:00:54;11.05;;;6.38;;
45316;SDS011;31053;55.870;37.592;2023-04-28T13:04:02;13.18;;;7.05;;
45316;SDS011;31053;55.870;37.592;2023-04-28T13:07:34;12.93;;;7.15;;
45316;SDS011;31053;55.870;37.592;2023-04-28T13:14:25;7.15;;;5.30;;
45316;SDS011;31053;55.870;37.592;2023-04-28T13:17:38;5.75;;;4.45;;
45316;SDS011;31053;55.870;37.592;2023-04-28T13:28:17;9.13;;;4.07;;
45316;SDS011;31053;55.870;37.592;2023-04-28T13:32:29;5.80;;;2.50;;
45316;SDS011;31053;55.870;37.592;2023-04-28T13:36:51;9.18;;;3.55;;
45316;SDS011;31053;55.870;37.592;2023-04-28T13:50:49;13.48;;;3.83;;
45316;SDS011;31053;55.870;37.592;2023-04-28T14:31:31;8.80;;;3.83;;
45316;SDS011;31053;55.870;37.592;2023-04-28T14:39:32;4.90;;;2.10;;
45316;SDS011;31053;55.870;37.592;2023-04-28T14:42:47;7.05;;;1.83;;
45316;SDS011;31053;55.870;37.592;2023-04-28T14:46:23;4.65;;;1.88;;
45316;SDS011;31053;55.870;37.592;2023-04-28T14:49:45;2.70;;;1.45;;
45316;SDS011;31053;55.870;37.592;2023-04-28T14:56:42;2.55;;;1.50;;
45316;SDS011;31053;55.870;37.592;2023-04-28T15:03:39;3.30;;;1.75;;
45316;SDS011;31053;55.870;37.592;2023-04-28T15:06:44;1.95;;;1.20;;
45316;SDS011;31053;55.870;37.592;2023-04-28T15:09:52;4.82;;;1.23;;
45316;SDS011;31053;55.870;37.592;2023-04-28T15:12:57;8.65;;;1.45;;
45316;SDS011;31053;55.870;37.592;2023-04-28T15:16:04;6.47;;;2.28;;
45316;SDS011;31053;55.870;37.592;2023-04-28T15:19:15;3.38;;;1.40;;
45316;SDS011;31053;55.870;37.592;2023-04-28T15:22:19;4.30;;;1.50;;
45316;SDS011;31053;55.870;37.592;2023-04-28T15:25:25;5.55;;;2.17;;
45316;SDS011;31053;55.870;37.592;2023-04-28T15:28:31;5.20;;;2.13;;
45316;SDS011;31053;55.870;37.592;2023-04-28T15:31:38;7.60;;;2.20;;
45316;SDS011;31053;55.870;37.592;2023-04-28T15:34:44;2.90;;;1.75;;
45316;SDS011;31053;55.870;37.592;2023-04-28T15:37:49;5.10;;;1.38;;
45316;SDS011;31053;55.870;37.592;2023-04-28T15:40:59;5.95;;;2.20;;
45316;SDS011;31053;55.870;37.592;2023-04-28T15:44:06;2.53;;;1.50;;
45316;SDS011;31053;55.870;37.592;2023-04-28T15:47:13;10.60;;;5.53;;
45316;SDS011;31053;55.870;37.592;2023-04-28T15:50:21;4.65;;;2.30;;
45316;SDS011;31053;55.870;37.592;2023-04-28T15:53:41;8.88;;;2.28;;
45316;SDS011;31053;55.870;37.592;2023-04-28T15:58:49;7.47;;;1.98;;
45316;SDS011;31053;55.870;37.592;2023-04-28T18:31:46;3.67;;;2.33;;
45316;SDS011;31053;55.870;37.592;2023-04-28T18:39:09;3.22;;;2.22;;
45316;SDS011;31053;55.870;37.592;2023-04-28T18:47:47;8.00;;;5.20;;
45316;SDS011;31053;55.870;37.592;2023-04-28T18:51:26;4.97;;;4.10;;
45316;SDS011;31053;55.870;37.592;2023-04-28T18:54:34;6.30;;;3.20;;
45316;SDS011;31053;55.870;37.592;2023-04-28T18:57:43;3.40;;;2.50;;
45316;SDS011;31053;55.870;37.592;2023-04-28T19:00:47;2.67;;;2.47;;
45316;SDS011;31053;55.870;37.592;2023-04-28T19:04:00;2.10;;;1.90;;
45316;SDS011;31053;55.870;37.592;2023-04-28T19:07:07;3.72;;;2.47;;
45316;SDS011;31053;55.870;37.592;2023-04-28T19:10:12;2.65;;;1.98;;
45316;SDS011;31053;55.870;37.592;2023-04-28T19:13:30;2.38;;;2.00;;
45316;SDS011;31053;55.870;37.592;2023-04-28T19:16:35;3.72;;;1.60;;
45316;SDS011;31053;55.870;37.592;2023-04-28T19:19:49;2.42;;;1.90;;
45316;SDS011;31053;55.870;37.592;2023-04-28T19:22:54;4.00;;;1.83;;
45316;SDS011;31053;55.870;37.592;2023-04-28T19:26:04;2.42;;;1.90;;
45316;SDS011;31053;55.870;37.592;2023-04-28T19:29:09;2.03;;;1.83;;
45316;SDS011;31053;55.870;37.592;2023-04-28T19:32:17;2.03;;;1.73;;
45316;SDS011;31053;55.870;37.592;2023-04-28T19:35:34;2.45;;;1.80;;
45316;SDS011;31053;55.870;37.592;2023-04-28T19:38:40;3.35;;;2.15;;
45316;SDS011;31053;55.870;37.592;2023-04-28T19:41:49;3.25;;;1.48;;
45316;SDS011;31053;55.870;37.592;2023-04-28T19:45:05;2.10;;;1.53;;
45316;SDS011;31053;55.870;37.592;2023-04-28T19:48:12;2.40;;;1.65;;
45316;SDS011;31053;55.870;37.592;2023-04-28T19:51:17;2.88;;;1.88;;
45316;SDS011;31053;55.870;37.592;2023-04-28T19:54:23;3.45;;;1.63;;
45316;SDS011;31053;55.870;37.592;2023-04-28T19:57:28;1.20;;;1.10;;
45316;SDS011;31053;55.870;37.592;2023-04-28T20:00:36;9.07;;;2.05;;
45316;SDS011;31053;55.870;37.592;2023-04-28T20:03:40;2.58;;;1.25;;
45316;SDS011;31053;55.870;37.592;2023-04-28T20:10:25;2.60;;;1.25;;
45316;SDS011;31053;55.870;37.592;2023-04-28T20:13:31;13.95;;;1.48;;
45316;SDS011;31053;55.870;37.592;2023-04-28T20:16:35;1.63;;;1.45;;
45316;SDS011;31053;55.870;37.592;2023-04-28T20:19:40;1.63;;;0.90;;
45316;SDS011;31053;55.870;37.592;2023-04-28T20:22:45;1.52;;;1.00;;
45316;SDS011;31053;55.870;37.592;2023-04-28T20:25:52;1.20;;;0.93;;
45316;SDS011;31053;55.870;37.592;2023-04-28T20:28:57;4.38;;;1.10;;
45316;SDS011;31053;55.870;37.592;2023-04-28T20:32:02;1.45;;;1.27;;
45316;SDS011;31053;55.870;37.592;2023-04-28T20:35:17;1.07;;;0.90;;
45316;SDS011;31053;55.870;37.592;2023-04-28T20:38:28;3.25;;;1.00;;
45316;SDS011;31053;55.870;37.592;2023-04-28T20:41:33;1.50;;;1.10;;
45316;SDS011;31053;55.870;37.592;2023-04-28T20:44:39;2.72;;;1.15;;
45316;SDS011;31053;55.870;37.592;2023-04-28T20:47:45;5.93;;;1.30;;
45316;SDS011;31053;55.870;37.592;2023-04-28T20:50:53;6.57;;;1.90;;
45316;SDS011;31053;55.870;37.592;2023-04-28T20:54:00;1.10;;;1.00;;
45316;SDS011;31053;55.870;37.592;2023-04-28T20:57:05;1.38;;;0.93;;
45316;SDS011;31053;55.870;37.592;2023-04-28T21:00:10;2.22;;;1.35;;
45316;SDS011;31053;55.870;37.592;2023-04-28T21:03:16;1.92;;;1.20;;
45316;SDS011;31053;55.870;37.592;2023-04-28T21:06:24;1.48;;;0.93;;
45316;SDS011;31053;55.870;37.592;2023-04-28T21:09:31;1.70;;;1.00;;
45316;SDS011;31053;55.870;37.592;2023-04-28T21:12:36;1.95;;;1.55;;
45316;SDS011;31053;55.870;37.592;2023-04-28T21:15:42;1.77;;;1.27;;
45316;SDS011;31053;55.870;37.592;2023-04-28T21:18:48;1.65;;;1.00;;
45316;SDS011;31053;55.870;37.592;2023-04-28T21:22:06;4.85;;;1.40;;
45316;SDS011;31053;55.870;37.592;2023-04-28T21:25:11;3.33;;;1.00;;
45316;SDS011;31053;55.870;37.592;2023-04-28T21:28:28;1.77;;;1.33;;
45316;SDS011;31053;55.870;37.592;2023-04-28T21:31:33;1.95;;;1.23;;
45316;SDS011;31053;55.870;37.592;2023-04-28T21:34:38;2.70;;;1.23;;
45316;SDS011;31053;55.870;37.592;2023-04-28T21:37:42;1.20;;;1.08;;
45316;SDS011;31053;55.870;37.592;2023-04-28T21:40:48;1.45;;;1.20;;
45316;SDS011;31053;55.870;37.592;2023-04-28T21:43:55;2.08;;;1.02;;
45316;SDS011;31053;55.870;37.592;2023-04-28T21:46:59;1.02;;;0.88;;
45316;SDS011;31053;55.870;37.592;2023-04-28T21:50:04;2.10;;;0.80;;
45316;SDS011;31053;55.870;37.592;2023-04-28T21:53:09;1.48;;;1.30;;
45316;SDS011;31053;55.870;37.592;2023-04-28T21:56:14;1.05;;;0.90;;
45316;SDS011;31053;55.870;37.592;2023-04-28T21:59:21;2.15;;;1.25;;
45316;SDS011;31053;55.870;37.592;2023-04-28T22:02:27;1.88;;;1.27;;
45316;SDS011;31053;55.870;37.592;2023-04-28T22:05:33;3.22;;;0.85;;
45316;SDS011;31053;55.870;37.592;2023-04-28T22:08:39;2.45;;;1.13;;
45316;SDS011;31053;55.870;37.592;2023-04-28T22:11:51;2.47;;;1.45;;
45316;SDS011;31053;55.870;37.592;2023-04-28T22:14:58;1.98;;;1.20;;
45316;SDS011;31053;55.870;37.592;2023-04-28T22:18:03;2.72;;;1.20;;
45316;SDS011;31053;55.870;37.592;2023-04-28T22:21:09;1.48;;;1.17;;
45316;SDS011;31053;55.870;37.592;2023-04-28T22:24:16;1.10;;;1.00;;
45316;SDS011;31053;55.870;37.592;2023-04-28T22:27:21;3.10;;;1.52;;
45316;SDS011;31053;55.870;37.592;2023-04-28T22:30:30;2.13;;;1.20;;
45316;SDS011;31053;55.870;37.592;2023-04-28T22:33:37;4.00;;;1.20;;
45316;SDS011;31053;55.870;37.592;2023-04-28T22:36:42;1.42;;;1.15;;
45316;SDS011;31053;55.870;37.592;2023-04-28T22:39:47;4.25;;;1.40;;
45316;SDS011;31053;55.870;37.592;2023-04-28T22:42:53;2.88;;;1.60;;
45316;SDS011;31053;55.870;37.592;2023-04-28T22:45:58;2.10;;;1.20;;
45316;SDS011;31053;55.870;37.592;2023-04-28T22:49:07;2.35;;;1.33;;
45316;SDS011;31053;55.870;37.592;2023-04-28T22:52:14;1.70;;;1.35;;
45316;SDS011;31053;55.870;37.592;2023-04-28T22:55:23;2.10;;;1.52;;
45316;SDS011;31053;55.870;37.592;2023-04-28T22:58:28;14.50;;;6.18;;
45316;SDS011;31053;55.870;37.592;2023-04-28T23:01:33;5.70;;;1.73;;
45316;SDS011;31053;55.870;37.592;2023-04-28T23:04:39;4.43;;;1.00;;
45316;SDS011;31053;55.870;37.592;2023-04-28T23:07:43;1.00;;;0.90;;
45316;SDS011;31053;55.870;37.592;2023-04-28T23:10:53;1.45;;;0.95;;
45316;SDS011;31053;55.870;37.592;2023-04-28T23:13:59;2.85;;;1.23;;
45316;SDS011;31053;55.870;37.592;2023-04-28T23:17:05;2.63;;;1.45;;
45316;SDS011;31053;55.870;37.592;2023-04-28T23:20:09;1.35;;;1.08;;
45316;SDS011;31053;55.870;37.592;2023-04-28T23:23:15;2.57;;;1.37;;
45316;SDS011;31053;55.870;37.592;2023-04-28T23:26:20;2.42;;;1.42;;
45316;SDS011;31053;55.870;37.592;2023-04-28T23:29:25;2.67;;;1.50;;
45316;SDS011;31053;55.870;37.592;2023-04-28T23:32:30;7.32;;;2.63;;
45316;SDS011;31053;55.870;37.592;2023-04-28T23:38:41;1.85;;;1.40;;
45316;SDS011;31053;55.870;37.592;2023-04-28T23:41:47;2.03;;;1.13;;
45316;SDS011;31053;55.870;37.592;2023-04-28T23:44:55;1.77;;;1.30;;
45316;SDS011;31053;55.870;37.592;2023-04-28T23:48:03;4.20;;;1.88;;
45316;SDS011;31053;55.870;37.592;2023-04-28T23:51:08;2.03;;;1.50;;
45316;SDS011;31053;55.870;37.592;2023-04-28T23:54:13;1.98;;;1.25;;
45316;SDS011;31053;55.870;37.592;2023-04-28T23:57:17;8.98;;;1.60;;
